Time,TemperatureF,DewpointF,PressureIn,WindDirection,WindDirectionDegrees,WindSpeedMPH,WindSpeedGustMPH,Humidity,HourlyPrecipIn,Conditions,Clouds,dailyrainin,SoftwareType,DateUTC
2014-09-02 00:00:00,77.0,48.0,29.69,NW,311,0.0,0.0,36,0.00,,,0.00,Wunderground v.1.15,2014-09-02 07:00:00,
2014-09-02 00:05:00,76.8,47.8,29.69,NW,311,0.0,0.0,36,0.00,,,0.00,Wunderground v.1.15,2014-09-02 07:05:00,
2014-09-02 00:10:00,76.7,47.0,29.69,NW,311,0.0,0.0,35,0.00,,,0.00,Wunderground v.1.15,2014-09-02 07:10:00,
2014-09-02 00:15:00,76.7,47.0,29.69,NW,311,0.0,0.0,35,0.00,,,0.00,Wunderground v.1.15,2014-09-02 07:15:00,
2014-09-02 00:25:00,76.6,47.6,29.70,NW,311,0.0,0.0,36,0.00,,,0.00,Wunderground v.1.15,2014-09-02 07:25:00,
2014-09-02 00:30:00,76.6,47.6,29.70,NW,311,0.0,0.0,36,0.00,,,0.00,Wunderground v.1.15,2014-09-02 07:30:00,
2014-09-02 00:35:00,76.4,48.2,29.70,NW,311,0.0,0.0,37,0.00,,,0.00,Wunderground v.1.15,2014-09-02 07:35:00,
2014-09-02 00:40:00,75.9,47.8,29.69,NW,311,0.0,0.0,37,0.00,,,0.00,Wunderground v.1.15,2014-09-02 07:40:00,
2014-09-02 00:45:00,75.5,48.1,29.69,NW,311,0.0,0.0,38,0.00,,,0.00,Wunderground v.1.15,2014-09-02 07:45:00,
2014-09-02 00:50:00,75.4,48.0,29.69,NW,311,0.0,0.0,38,0.00,,,0.00,Wunderground v.1.15,2014-09-02 07:50:00,
2014-09-02 00:55:00,75.5,48.1,29.69,NW,311,0.0,0.0,38,0.00,,,0.00,Wunderground v.1.15,2014-09-02 07:55:00,
2014-09-02 01:00:00,75.7,48.3,29.69,NW,311,0.0,0.0,38,0.00,,,0.00,Wunderground v.1.15,2014-09-02 08:00:00,
2014-09-02 01:05:00,75.9,47.8,29.69,NW,311,0.0,0.0,37,0.00,,,0.00,Wunderground v.1.15,2014-09-02 08:05:00,
2014-09-02 01:10:00,75.8,48.4,29.69,NW,311,0.0,0.0,38,0.00,,,0.00,Wunderground v.1.15,2014-09-02 08:10:00,
2014-09-02 01:20:00,75.4,48.0,29.69,NW,311,0.0,0.0,38,0.00,,,0.00,Wunderground v.1.15,2014-09-02 08:20:00,
2014-09-02 01:25:00,75.2,47.8,29.69,NW,311,0.0,0.0,38,0.00,,,0.00,Wunderground v.1.15,2014-09-02 08:25:00,
2014-09-02 01:30:00,74.9,48.3,29.69,NW,311,0.0,0.0,39,0.00,,,0.00,Wunderground v.1.15,2014-09-02 08:30:00,
2014-09-02 01:35:00,74.6,48.0,29.69,NW,311,0.0,0.0,39,0.00,,,0.00,Wunderground v.1.15,2014-09-02 08:35:00,
2014-09-02 01:40:00,74.1,48.9,29.69,NW,311,0.0,0.0,41,0.00,,,0.00,Wunderground v.1.15,2014-09-02 08:40:00,
2014-09-02 01:45:00,73.6,49.1,29.69,NW,311,0.0,0.0,42,0.00,,,0.00,Wunderground v.1.15,2014-09-02 08:45:00,
2014-09-02 01:50:00,72.9,49.7,29.69,NW,311,0.0,0.0,44,0.00,,,0.00,Wunderground v.1.15,2014-09-02 08:50:00,
2014-09-02 01:55:00,72.5,49.9,29.69,NW,311,0.0,0.0,45,0.00,,,0.00,Wunderground v.1.15,2014-09-02 08:55:00,
2014-09-02 02:00:00,72.1,50.2,29.70,NW,311,0.0,0.0,46,0.00,,,0.00,Wunderground v.1.15,2014-09-02 09:00:00,
2014-09-02 02:10:00,70.7,51.7,29.70,NW,311,0.0,0.0,51,0.00,,,0.00,Wunderground v.1.15,2014-09-02 09:10:00,
2014-09-02 02:15:00,70.6,49.4,29.69,NW,311,0.0,0.0,47,0.00,,,0.00,Wunderground v.1.15,2014-09-02 09:15:00,
2014-09-02 02:20:00,70.4,48.6,29.70,NW,311,0.0,0.0,46,0.00,,,0.00,Wunderground v.1.15,2014-09-02 09:20:00,
2014-09-02 02:25:00,71.0,49.2,29.70,NW,311,0.0,0.0,46,0.00,,,0.00,Wunderground v.1.15,2014-09-02 09:25:00,
2014-09-02 02:30:00,71.2,49.4,29.70,NW,311,0.0,0.0,46,0.00,,,0.00,Wunderground v.1.15,2014-09-02 09:30:00,
2014-09-02 02:35:00,71.2,49.9,29.70,NW,311,0.0,0.0,47,0.00,,,0.00,Wunderground v.1.15,2014-09-02 09:35:00,
2014-09-02 02:40:00,70.9,51.3,29.70,NW,311,0.0,0.0,50,0.00,,,0.00,Wunderground v.1.15,2014-09-02 09:40:00,
2014-09-02 02:45:00,70.6,50.5,29.70,NW,311,0.0,0.0,49,0.00,,,0.00,Wunderground v.1.15,2014-09-02 09:45:00,
2014-09-02 02:50:00,70.6,50.5,29.70,NW,311,0.0,0.0,49,0.00,,,0.00,Wunderground v.1.15,2014-09-02 09:50:00,
2014-09-02 02:55:00,70.6,51.6,29.70,NW,311,0.0,0.0,51,0.00,,,0.00,Wunderground v.1.15,2014-09-02 09:55:00,
2014-09-02 03:00:00,70.5,52.0,29.70,NW,311,0.0,0.0,52,0.00,,,0.00,Wunderground v.1.15,2014-09-02 10:00:00,
2014-09-02 03:05:00,70.4,51.9,29.70,NW,311,0.0,0.0,52,0.00,,,0.00,Wunderground v.1.15,2014-09-02 10:05:00,
2014-09-02 03:10:00,70.2,51.7,29.71,NW,311,0.0,0.0,52,0.00,,,0.00,Wunderground v.1.15,2014-09-02 10:10:00,
2014-09-02 03:15:00,69.9,51.5,29.71,NW,311,0.0,0.0,52,0.00,,,0.00,Wunderground v.1.15,2014-09-02 10:15:00,
2014-09-02 03:20:00,69.4,51.5,29.71,NW,311,0.0,0.0,53,0.00,,,0.00,Wunderground v.1.15,2014-09-02 10:20:00,
2014-09-02 03:25:00,69.0,52.2,29.70,NW,311,0.0,0.0,55,0.00,,,0.00,Wunderground v.1.15,2014-09-02 10:25:00,
2014-09-02 03:35:00,68.3,51.5,29.71,NW,311,0.0,0.0,55,0.00,,,0.00,Wunderground v.1.15,2014-09-02 10:35:00,
2014-09-02 03:45:00,67.7,52.4,29.71,NW,311,0.0,0.0,58,0.00,,,0.00,Wunderground v.1.15,2014-09-02 10:45:00,
2014-09-02 03:50:00,67.3,52.0,29.71,NW,311,0.0,0.0,58,0.00,,,0.00,Wunderground v.1.15,2014-09-02 10:50:00,
2014-09-02 03:55:00,66.9,51.6,29.71,NW,311,0.0,0.0,58,0.00,,,0.00,Wunderground v.1.15,2014-09-02 10:55:00,
2014-09-02 04:05:00,66.5,51.7,29.71,NW,311,0.0,0.0,59,0.00,,,0.00,Wunderground v.1.15,2014-09-02 11:05:00,
2014-09-02 04:10:00,66.1,52.3,29.71,NW,311,0.0,0.0,61,0.00,,,0.00,Wunderground v.1.15,2014-09-02 11:10:00,
2014-09-02 04:15:00,65.9,52.1,29.72,NW,311,0.0,0.0,61,0.00,,,0.00,Wunderground v.1.15,2014-09-02 11:15:00,
2014-09-02 04:20:00,65.8,52.0,29.71,NW,311,0.0,0.0,61,0.00,,,0.00,Wunderground v.1.15,2014-09-02 11:20:00,
2014-09-02 04:30:00,65.7,52.3,29.72,NW,311,0.0,0.0,62,0.00,,,0.00,Wunderground v.1.15,2014-09-02 11:30:00,
2014-09-02 04:35:00,65.0,52.9,29.72,NW,311,0.0,0.0,65,0.00,,,0.00,Wunderground v.1.15,2014-09-02 11:35:00,
2014-09-02 04:40:00,64.7,53.5,29.71,NW,311,0.0,0.0,67,0.00,,,0.00,Wunderground v.1.15,2014-09-02 11:40:00,
2014-09-02 04:45:00,65.0,53.4,29.72,NW,311,0.0,0.0,66,0.00,,,0.00,Wunderground v.1.15,2014-09-02 11:45:00,
2014-09-02 04:50:00,65.0,53.4,29.72,NW,311,0.0,0.0,66,0.00,,,0.00,Wunderground v.1.15,2014-09-02 11:50:00,
2014-09-02 04:55:00,64.9,53.3,29.71,NW,311,0.0,0.0,66,0.00,,,0.00,Wunderground v.1.15,2014-09-02 11:55:00,
2014-09-02 05:00:00,64.9,52.8,29.72,NW,311,0.0,0.0,65,0.00,,,0.00,Wunderground v.1.15,2014-09-02 12:00:00,
2014-09-02 05:05:00,64.9,53.3,29.72,NW,311,0.0,0.0,66,0.00,,,0.00,Wunderground v.1.15,2014-09-02 12:05:00,
2014-09-02 05:10:00,64.7,53.5,29.72,NW,311,0.0,0.0,67,0.00,,,0.00,Wunderground v.1.15,2014-09-02 12:10:00,
2014-09-02 05:15:00,64.4,53.6,29.72,NW,311,0.0,0.0,68,0.00,,,0.00,Wunderground v.1.15,2014-09-02 12:15:00,
2014-09-02 05:20:00,64.3,53.5,29.72,NW,311,0.0,0.0,68,0.00,,,0.00,Wunderground v.1.15,2014-09-02 12:20:00,
2014-09-02 05:25:00,64.2,53.8,29.72,NW,311,0.0,0.0,69,0.00,,,0.00,Wunderground v.1.15,2014-09-02 12:25:00,
2014-09-02 05:30:00,64.1,53.3,29.72,NW,311,0.0,0.0,68,0.00,,,0.00,Wunderground v.1.15,2014-09-02 12:30:00,
2014-09-02 05:35:00,64.2,52.6,29.73,NW,311,0.0,0.0,66,0.00,,,0.00,Wunderground v.1.15,2014-09-02 12:35:00,
2014-09-02 05:40:00,64.1,52.5,29.73,NW,311,0.0,0.0,66,0.00,,,0.00,Wunderground v.1.15,2014-09-02 12:40:00,
2014-09-02 05:45:00,64.0,53.2,29.73,NW,311,0.0,0.0,68,0.00,,,0.00,Wunderground v.1.15,2014-09-02 12:45:00,
2014-09-02 05:55:00,63.2,53.6,29.73,NW,311,0.0,0.0,71,0.00,,,0.00,Wunderground v.1.15,2014-09-02 12:55:00,
2014-09-02 06:00:00,62.9,53.4,29.74,NW,311,0.0,0.0,71,0.00,,,0.00,Wunderground v.1.15,2014-09-02 13:00:00,
2014-09-02 06:05:00,62.7,53.5,29.74,NW,311,0.0,0.0,72,0.00,,,0.00,Wunderground v.1.15,2014-09-02 13:05:00,
2014-09-02 06:10:00,62.5,53.7,29.74,NW,311,0.0,0.0,73,0.00,,,0.00,Wunderground v.1.15,2014-09-02 13:10:00,
2014-09-02 06:15:00,62.4,53.6,29.74,NW,311,0.0,0.0,73,0.00,,,0.00,Wunderground v.1.15,2014-09-02 13:15:00,
2014-09-02 06:20:00,62.4,54.0,29.74,NW,311,0.0,0.0,74,0.00,,,0.00,Wunderground v.1.15,2014-09-02 13:20:00,
2014-09-02 06:30:00,62.9,54.5,29.74,NW,311,0.0,0.0,74,0.00,,,0.00,Wunderground v.1.15,2014-09-02 13:30:00,
2014-09-02 06:35:00,62.6,54.2,29.74,NW,311,0.0,0.0,74,0.00,,,0.00,Wunderground v.1.15,2014-09-02 13:35:00,
2014-09-02 06:40:00,62.5,54.1,29.74,NW,311,0.0,0.0,74,0.00,,,0.00,Wunderground v.1.15,2014-09-02 13:40:00,
2014-09-02 06:45:00,62.3,53.9,29.75,NW,311,0.0,0.0,74,0.00,,,0.00,Wunderground v.1.15,2014-09-02 13:45:00,
2014-09-02 06:55:00,62.0,54.0,29.75,NW,311,0.0,0.0,75,0.00,,,0.00,Wunderground v.1.15,2014-09-02 13:55:00,
2014-09-02 07:00:00,61.9,53.9,29.75,NW,311,0.0,0.0,75,0.00,,,0.00,Wunderground v.1.15,2014-09-02 14:00:00,
2014-09-02 07:05:00,61.9,54.2,29.75,NW,311,0.0,0.0,76,0.00,,,0.00,Wunderground v.1.15,2014-09-02 14:05:00,
2014-09-02 07:15:00,61.7,52.2,29.76,NW,311,0.0,0.0,71,0.00,,,0.00,Wunderground v.1.15,2014-09-02 14:15:00,
2014-09-02 07:20:00,61.7,51.0,29.76,NW,311,0.0,0.0,68,0.00,,,0.00,Wunderground v.1.15,2014-09-02 14:20:00,
2014-09-02 07:25:00,62.3,51.6,29.76,NW,311,0.0,0.0,68,0.00,,,0.00,Wunderground v.1.15,2014-09-02 14:25:00,
2014-09-02 07:35:00,63.7,50.9,29.76,NW,311,0.0,0.0,63,0.00,,,0.00,Wunderground v.1.15,2014-09-02 14:35:00,
2014-09-02 07:40:00,64.1,50.4,29.76,NW,311,0.0,0.0,61,0.00,,,0.00,Wunderground v.1.15,2014-09-02 14:40:00,
2014-09-02 07:45:00,64.7,51.8,29.76,NW,311,0.0,0.0,63,0.00,,,0.00,Wunderground v.1.15,2014-09-02 14:45:00,
2014-09-02 07:50:00,65.4,50.2,29.76,NW,311,0.0,0.0,58,0.00,,,0.00,Wunderground v.1.15,2014-09-02 14:50:00,
2014-09-02 07:55:00,66.1,50.4,29.76,NW,311,0.0,0.0,57,0.00,,,0.00,Wunderground v.1.15,2014-09-02 14:55:00,
2014-09-02 08:00:00,66.9,51.2,29.76,NW,311,0.0,0.0,57,0.00,,,0.00,Wunderground v.1.15,2014-09-02 15:00:00,
2014-09-02 08:05:00,67.5,51.2,29.76,NW,311,0.0,0.0,56,0.00,,,0.00,Wunderground v.1.15,2014-09-02 15:05:00,
2014-09-02 08:10:00,68.1,52.3,29.76,NW,311,0.0,0.0,57,0.00,,,0.00,Wunderground v.1.15,2014-09-02 15:10:00,
2014-09-02 08:15:00,68.8,52.9,29.76,NW,311,0.0,0.0,57,0.00,,,0.00,Wunderground v.1.15,2014-09-02 15:15:00,
2014-09-02 08:20:00,69.3,53.4,29.77,NW,311,0.0,0.0,57,0.00,,,0.00,Wunderground v.1.15,2014-09-02 15:20:00,
2014-09-02 08:25:00,69.8,53.4,29.76,NW,311,0.0,0.0,56,0.00,,,0.00,Wunderground v.1.15,2014-09-02 15:25:00,
2014-09-02 08:30:00,70.3,53.9,29.77,NW,311,0.0,0.0,56,0.00,,,0.00,Wunderground v.1.15,2014-09-02 15:30:00,
2014-09-02 08:35:00,70.9,53.9,29.77,NW,311,0.0,0.0,55,0.00,,,0.00,Wunderground v.1.15,2014-09-02 15:35:00,
2014-09-02 08:45:00,72.4,54.8,29.77,NW,311,0.0,0.0,54,0.00,,,0.00,Wunderground v.1.15,2014-09-02 15:45:00,
2014-09-02 08:50:00,73.2,54.5,29.77,NW,311,0.0,0.0,52,0.00,,,0.00,Wunderground v.1.15,2014-09-02 15:50:00,
2014-09-02 08:55:00,74.0,54.2,29.77,NW,311,0.0,0.0,50,0.00,,,0.00,Wunderground v.1.15,2014-09-02 15:55:00,
2014-09-02 09:00:00,74.9,54.4,29.76,NW,311,0.0,0.0,49,0.00,,,0.00,Wunderground v.1.15,2014-09-02 16:00:00,
2014-09-02 09:05:00,75.7,54.0,29.77,NW,311,0.0,0.0,47,0.00,,,0.00,Wunderground v.1.15,2014-09-02 16:05:00,
2014-09-02 09:15:00,76.9,53.9,29.77,NW,311,0.0,0.0,45,0.00,,,0.00,Wunderground v.1.15,2014-09-02 16:15:00,
2014-09-02 09:30:00,77.7,54.7,29.77,NW,311,0.0,0.0,45,0.00,,,0.00,Wunderground v.1.15,2014-09-02 16:30:00,
2014-09-02 09:40:00,78.0,53.0,29.77,NW,311,0.0,0.0,42,0.00,,,0.00,Wunderground v.1.15,2014-09-02 16:40:00,
2014-09-02 09:45:00,78.1,53.1,29.77,NW,311,1.0,1.0,42,0.00,,,0.00,Wunderground v.1.15,2014-09-02 16:45:00,
2014-09-02 09:50:00,78.6,52.9,29.77,NW,311,0.0,0.0,41,0.00,,,0.00,Wunderground v.1.15,2014-09-02 16:50:00,
2014-09-02 09:55:00,79.1,52.0,29.77,NW,311,0.0,0.0,39,0.00,,,0.00,Wunderground v.1.15,2014-09-02 16:55:00,
2014-09-02 10:00:00,79.3,52.9,29.77,NW,311,0.0,0.0,40,0.00,,,0.00,Wunderground v.1.15,2014-09-02 17:00:00,
2014-09-02 10:05:00,79.6,53.8,29.77,NW,311,0.0,0.0,41,0.00,,,0.00,Wunderground v.1.15,2014-09-02 17:05:00,
2014-09-02 10:10:00,79.8,53.3,29.77,NW,311,0.0,2.0,40,0.00,,,0.00,Wunderground v.1.15,2014-09-02 17:10:00,
2014-09-02 10:15:00,79.8,53.3,29.77,NW,311,1.0,2.0,40,0.00,,,0.00,Wunderground v.1.15,2014-09-02 17:15:00,
2014-09-02 10:25:00,80.5,54.6,29.77,NW,311,1.0,1.0,41,0.00,,,0.00,Wunderground v.1.15,2014-09-02 17:25:00,
2014-09-02 10:30:00,80.6,53.4,29.76,NW,311,1.0,1.0,39,0.00,,,0.00,Wunderground v.1.15,2014-09-02 17:30:00,
2014-09-02 10:35:00,80.9,54.3,29.76,NW,311,2.0,5.0,40,0.00,,,0.00,Wunderground v.1.15,2014-09-02 17:35:00,
2014-09-02 10:45:00,81.3,52.5,29.76,NW,311,2.0,2.0,37,0.00,,,0.00,Wunderground v.1.15,2014-09-02 17:45:00,
2014-09-02 10:55:00,81.6,53.5,29.76,NW,311,1.0,2.0,38,0.00,,,0.00,Wunderground v.1.15,2014-09-02 17:55:00,
2014-09-02 11:00:00,82.2,54.1,29.76,NW,311,1.0,1.0,38,0.00,,,0.00,Wunderground v.1.15,2014-09-02 18:00:00,
2014-09-02 11:05:00,82.6,55.8,29.76,NW,311,0.0,1.0,40,0.00,,,0.00,Wunderground v.1.15,2014-09-02 18:05:00,
2014-09-02 11:10:00,82.8,54.6,29.76,NW,311,1.0,1.0,38,0.00,,,0.00,Wunderground v.1.15,2014-09-02 18:10:00,
2014-09-02 11:15:00,83.2,55.0,29.76,NW,311,1.0,2.0,38,0.00,,,0.00,Wunderground v.1.15,2014-09-02 18:15:00,
2014-09-02 11:20:00,83.4,55.1,29.76,NW,311,0.0,0.0,38,0.00,,,0.00,Wunderground v.1.15,2014-09-02 18:20:00,
2014-09-02 11:25:00,84.0,57.8,29.76,NW,311,0.0,0.0,41,0.00,,,0.00,Wunderground v.1.15,2014-09-02 18:25:00,
2014-09-02 11:30:00,84.2,55.8,29.76,NW,311,0.0,0.0,38,0.00,,,0.00,Wunderground v.1.15,2014-09-02 18:30:00,
2014-09-02 11:40:00,84.9,56.5,29.76,NW,311,0.0,0.0,38,0.00,,,0.00,Wunderground v.1.15,2014-09-02 18:40:00,
2014-09-02 11:50:00,86.2,54.5,29.75,NW,311,0.0,0.0,34,0.00,,,0.00,Wunderground v.1.15,2014-09-02 18:50:00,
2014-09-02 11:55:00,86.0,52.7,29.75,NW,311,1.0,1.0,32,0.00,,,0.00,Wunderground v.1.15,2014-09-02 18:55:00,
2014-09-02 12:05:00,86.5,54.0,29.75,NW,311,1.0,2.0,33,0.00,,,0.00,Wunderground v.1.15,2014-09-02 19:05:00,
2014-09-02 12:10:00,87.2,53.7,29.75,NW,311,1.0,1.0,32,0.00,,,0.00,Wunderground v.1.15,2014-09-02 19:10:00,
2014-09-02 12:15:00,87.6,54.1,29.75,NW,311,2.0,5.0,32,0.00,,,0.00,Wunderground v.1.15,2014-09-02 19:15:00,
2014-09-02 12:20:00,87.2,53.7,29.75,NW,311,3.0,4.0,32,0.00,,,0.00,Wunderground v.1.15,2014-09-02 19:20:00,
2014-09-02 12:25:00,86.9,53.5,29.75,NW,311,4.0,4.0,32,0.00,,,0.00,Wunderground v.1.15,2014-09-02 19:25:00,
2014-09-02 12:30:00,87.2,53.7,29.74,NW,311,4.0,5.0,32,0.00,,,0.00,Wunderground v.1.15,2014-09-02 19:30:00,
2014-09-02 12:35:00,87.4,57.2,29.74,NW,311,2.0,5.0,36,0.00,,,0.00,Wunderground v.1.15,2014-09-02 19:35:00,
2014-09-02 12:45:00,89.1,54.5,29.74,NW,311,1.0,5.0,31,0.00,,,0.00,Wunderground v.1.15,2014-09-02 19:45:00,
2014-09-02 12:55:00,90.0,56.2,29.73,NW,311,1.0,1.0,32,0.00,,,0.00,Wunderground v.1.15,2014-09-02 19:55:00,
2014-09-02 13:00:00,90.8,56.0,29.73,NW,311,1.0,1.0,31,0.00,,,0.00,Wunderground v.1.15,2014-09-02 20:00:00,
2014-09-02 13:10:00,90.5,54.8,29.73,WNW,286,3.0,6.0,30,0.00,,,0.00,Wunderground v.1.15,2014-09-02 20:10:00,
2014-09-02 13:15:00,90.9,55.2,29.72,WNW,286,5.0,6.0,30,0.00,,,0.00,Wunderground v.1.15,2014-09-02 20:15:00,
2014-09-02 13:20:00,91.1,55.3,29.72,WNW,286,5.0,5.0,30,0.00,,,0.00,Wunderground v.1.15,2014-09-02 20:20:00,
2014-09-02 13:30:00,91.0,53.4,29.72,WSW,251,7.0,8.0,28,0.00,,,0.00,Wunderground v.1.15,2014-09-02 20:30:00,
2014-09-02 13:35:00,91.1,53.5,29.72,SW,235,7.0,9.0,28,0.00,,,0.00,Wunderground v.1.15,2014-09-02 20:35:00,
2014-09-02 13:45:00,92.0,55.2,29.71,SW,235,3.0,6.0,29,0.00,,,0.00,Wunderground v.1.15,2014-09-02 20:45:00,
2014-09-02 13:55:00,92.2,51.3,29.71,South,175,7.0,7.0,25,0.00,,,0.00,Wunderground v.1.15,2014-09-02 20:55:00,
2014-09-02 14:00:00,92.2,52.4,29.71,South,175,8.0,10.0,26,0.00,,,0.00,Wunderground v.1.15,2014-09-02 21:00:00,
2014-09-02 14:05:00,92.2,54.4,29.71,South,175,7.0,10.0,28,0.00,,,0.00,Wunderground v.1.15,2014-09-02 21:05:00,
2014-09-02 14:10:00,92.8,52.9,29.71,South,175,5.0,5.0,26,0.00,,,0.00,Wunderground v.1.15,2014-09-02 21:10:00,
2014-09-02 14:20:00,92.5,51.6,29.71,South,175,7.0,8.0,25,0.00,,,0.00,Wunderground v.1.15,2014-09-02 21:20:00,
2014-09-02 14:25:00,92.6,51.6,29.70,SSE,166,8.0,14.0,25,0.00,,,0.00,Wunderground v.1.15,2014-09-02 21:25:00,
2014-09-02 14:35:00,92.7,52.8,29.70,South,169,9.0,11.0,26,0.00,,,0.00,Wunderground v.1.15,2014-09-02 21:35:00,
2014-09-02 14:40:00,92.6,52.7,29.70,SSE,167,9.0,9.0,26,0.00,,,0.00,Wunderground v.1.15,2014-09-02 21:40:00,
2014-09-02 14:45:00,93.0,55.1,29.69,SSE,167,8.0,11.0,28,0.00,,,0.00,Wunderground v.1.15,2014-09-02 21:45:00,
2014-09-02 14:50:00,93.2,55.2,29.69,SSE,167,7.0,12.0,28,0.00,,,0.00,Wunderground v.1.15,2014-09-02 21:50:00,
2014-09-02 14:55:00,93.3,55.3,29.69,SSE,167,7.0,12.0,28,0.00,,,0.00,Wunderground v.1.15,2014-09-02 21:55:00,
2014-09-02 15:00:00,93.7,57.6,29.68,SSE,167,5.0,6.0,30,0.00,,,0.00,Wunderground v.1.15,2014-09-02 22:00:00,
2014-09-02 15:10:00,93.7,55.7,29.68,SSE,167,7.0,7.0,28,0.00,,,0.00,Wunderground v.1.15,2014-09-02 22:10:00,
2014-09-02 15:15:00,93.8,54.8,29.68,SSE,167,5.0,8.0,27,0.00,,,0.00,Wunderground v.1.15,2014-09-02 22:15:00,
2014-09-02 15:20:00,93.8,54.8,29.67,South,169,4.0,4.0,27,0.00,,,0.00,Wunderground v.1.15,2014-09-02 22:20:00,
2014-09-02 15:25:00,93.8,52.7,29.67,South,174,5.0,5.0,25,0.00,,,0.00,Wunderground v.1.15,2014-09-02 22:25:00,
2014-09-02 15:30:00,93.6,53.6,29.67,South,176,5.0,5.0,26,0.00,,,0.00,Wunderground v.1.15,2014-09-02 22:30:00,
2014-09-02 15:35:00,93.7,53.6,29.67,South,174,4.0,5.0,26,0.00,,,0.00,Wunderground v.1.15,2014-09-02 22:35:00,
2014-09-02 15:40:00,94.0,53.9,29.67,South,173,4.0,8.0,26,0.00,,,0.00,Wunderground v.1.15,2014-09-02 22:40:00,
2014-09-02 15:45:00,93.7,52.6,29.67,SSE,168,6.0,8.0,25,0.00,,,0.00,Wunderground v.1.15,2014-09-02 22:45:00,
2014-09-02 15:50:00,93.7,54.7,29.66,South,170,7.0,7.0,27,0.00,,,0.00,Wunderground v.1.15,2014-09-02 22:50:00,
2014-09-02 15:55:00,93.8,55.8,29.66,South,170,5.0,7.0,28,0.00,,,0.00,Wunderground v.1.15,2014-09-02 22:55:00,
2014-09-02 16:00:00,94.0,55.9,29.66,South,170,4.0,5.0,28,0.00,,,0.00,Wunderground v.1.15,2014-09-02 23:00:00,
2014-09-02 16:05:00,93.8,55.8,29.66,South,171,7.0,8.0,28,0.00,,,0.00,Wunderground v.1.15,2014-09-02 23:05:00,
2014-09-02 16:10:00,93.6,54.6,29.66,South,170,9.0,12.0,27,0.00,,,0.00,Wunderground v.1.15,2014-09-02 23:10:00,
2014-09-02 16:20:00,93.6,55.6,29.65,South,178,5.0,5.0,28,0.00,,,0.00,Wunderground v.1.15,2014-09-02 23:20:00,
2014-09-02 16:25:00,93.7,55.7,29.65,South,178,3.0,5.0,28,0.00,,,0.00,Wunderground v.1.15,2014-09-02 23:25:00,
2014-09-02 16:30:00,93.8,55.8,29.65,South,178,3.0,3.0,28,0.00,,,0.00,Wunderground v.1.15,2014-09-02 23:30:00,
2014-09-02 16:35:00,93.7,55.7,29.65,South,178,4.0,4.0,28,0.00,,,0.00,Wunderground v.1.15,2014-09-02 23:35:00,
2014-09-02 16:40:00,93.5,54.5,29.65,South,175,5.0,11.0,27,0.00,,,0.00,Wunderground v.1.15,2014-09-02 23:40:00,
2014-09-02 16:45:00,93.7,57.6,29.64,South,174,4.0,11.0,30,0.00,,,0.00,Wunderground v.1.15,2014-09-02 23:45:00,
2014-09-02 16:55:00,93.3,56.3,29.64,South,174,4.0,9.0,29,0.00,,,0.00,Wunderground v.1.15,2014-09-02 23:55:00,
2014-09-02 17:00:00,93.3,57.2,29.64,South,174,5.0,5.0,30,0.00,,,0.00,Wunderground v.1.15,2014-09-03 00:00:00,
2014-09-02 17:05:00,93.3,58.2,29.64,South,174,3.0,5.0,31,0.00,,,0.00,Wunderground v.1.15,2014-09-03 00:05:00,
2014-09-02 17:10:00,93.1,57.1,29.64,South,174,1.0,1.0,30,0.00,,,0.00,Wunderground v.1.15,2014-09-03 00:10:00,
2014-09-02 17:15:00,92.9,57.8,29.64,South,174,1.0,7.0,31,0.00,,,0.00,Wunderground v.1.15,2014-09-03 00:15:00,
2014-09-02 17:20:00,92.9,57.8,29.64,South,174,1.0,1.0,31,0.00,,,0.00,Wunderground v.1.15,2014-09-03 00:20:00,
2014-09-02 17:30:00,92.8,56.8,29.63,South,174,2.0,6.0,30,0.00,,,0.00,Wunderground v.1.15,2014-09-03 00:30:00,
2014-09-02 17:35:00,92.7,57.6,29.63,South,174,2.0,9.0,31,0.00,,,0.00,Wunderground v.1.15,2014-09-03 00:35:00,
2014-09-02 17:45:00,92.6,56.6,29.63,South,174,3.0,3.0,30,0.00,,,0.00,Wunderground v.1.15,2014-09-03 00:45:00,